Time;durP1;ratioP1;P1;durP2;ratioP2;P2;SDS_P1;SDS_P2;PMS_P1;PMS_P2;Temp;Humidity;BMP_temperature;BMP_pressure;BME280_temperature;BME280_humidity;BME280_pressure;Samples;Min_cycle;Max_cycle;Signal;HPM_P1;HPM_P2
2023/02/13 00:00:25;;;;;;;25.83;16.70;;;;;;;0.03;100.00;100125.44;4991482;28;20217;-81
2023/02/13 00:02:52;;;;;;;27.67;16.20;;;;;;;0.03;100.00;100124.56;4991502;28;20226;-81
2023/02/13 00:05:19;;;;;;;27.43;17.07;;;;;;;0.03;100.00;100133.25;4994783;28;20215;-81
2023/02/13 00:07:46;;;;;;;29.90;17.87;;;;;;;0.04;100.00;100121.97;4994788;28;20230;-81
2023/02/13 00:10:12;;;;;;;26.03;15.83;;;;;;;0.06;100.00;100125.44;4994782;28;20217;-81
2023/02/13 00:15:10;;;;;;;29.43;16.00;;;;;;;0.14;100.00;100118.53;5051197;28;20224;-90
2023/02/13 00:17:36;;;;;;;26.10;16.60;;;;;;;0.16;100.00;100121.16;5053952;28;20577;-90
2023/02/13 00:20:04;;;;;;;29.63;16.70;;;;;;;0.16;100.00;100116.81;5054472;28;20219;-90
2023/02/13 00:22:30;;;;;;;30.30;17.43;;;;;;;0.11;100.00;100115.94;5054357;28;20210;-90
2023/02/13 00:24:57;;;;;;;30.30;17.53;;;;;;;0.11;100.00;100115.94;5053979;28;20254;-88
2023/02/13 00:27:23;;;;;;;30.20;17.20;;;;;;;0.15;100.00;100115.09;5054203;28;20685;-88
2023/02/13 00:29:50;;;;;;;32.67;17.37;;;;;;;0.17;100.00;100113.34;5054356;28;20209;-90
2023/02/13 00:32:18;;;;;;;29.13;17.07;;;;;;;0.16;100.00;100115.94;5054004;28;20211;-88
2023/02/13 00:34:44;;;;;;;26.97;16.67;;;;;;;0.14;100.00;100112.47;5053898;28;20248;-88
2023/02/13 00:37:11;;;;;;;29.90;17.60;;;;;;;0.10;100.00;100109.00;5053663;28;20219;-88
2023/02/13 00:39:37;;;;;;;28.07;16.17;;;;;;;0.11;100.00;100118.53;5053900;28;20220;-88
2023/02/13 00:42:04;;;;;;;26.03;16.10;;;;;;;0.09;100.00;100112.47;5053818;28;20207;-88
2023/02/13 00:44:30;;;;;;;28.90;16.60;;;;;;;0.23;100.00;100108.16;5053671;28;20232;-88
2023/02/13 00:46:57;;;;;;;27.33;16.10;;;;;;;0.20;100.00;100105.56;5053717;28;20555;-88
2023/02/13 00:49:25;;;;;;;25.20;16.47;;;;;;;0.23;100.00;100113.38;5053806;28;20210;-88
2023/02/13 00:51:51;;;;;;;25.17;15.33;;;;;;;0.21;100.00;100115.13;5053883;28;20231;-88
2023/02/13 00:54:18;;;;;;;29.73;16.73;;;;;;;0.18;100.00;100109.88;5053633;28;20231;-90
2023/02/13 00:56:44;;;;;;;26.13;16.30;;;;;;;0.18;100.00;100114.19;5053478;28;20208;-90
2023/02/13 00:59:11;;;;;;;25.00;15.57;;;;;;;0.12;100.00;100103.78;5053680;28;20215;-87
2023/02/13 01:01:37;;;;;;;24.40;16.00;;;;;;;0.06;100.00;100114.16;5053467;28;20221;-90
2023/02/13 01:04:04;;;;;;;24.60;15.50;;;;;;;0.14;100.00;100102.94;5053589;28;20231;-90
2023/02/13 01:06:32;;;;;;;26.20;16.63;;;;;;;0.15;100.00;100099.50;5053140;28;20223;-89
2023/02/13 01:08:58;;;;;;;24.57;15.70;;;;;;;0.17;100.00;100102.94;5053261;28;20215;-89
2023/02/13 01:11:25;;;;;;;28.93;17.53;;;;;;;0.16;100.00;100101.22;5053162;28;20219;-89
2023/02/13 01:13:51;;;;;;;28.27;16.20;;;;;;;0.20;100.00;100105.56;5053053;28;20232;-89
2023/02/13 01:16:18;;;;;;;24.97;16.60;;;;;;;0.14;100.00;100107.28;5051955;28;20559;-89
2023/02/13 01:18:44;;;;;;;24.93;15.53;;;;;;;0.07;100.00;100116.78;5053211;28;20212;-90
2023/02/13 01:21:16;;;;;;;30.67;16.83;;;;;;;0.06;100.00;100116.75;5053052;28;20208;-89
2023/02/13 01:23:44;;;;;;;25.73;16.40;;;;;;;0.02;100.00;100107.22;5052933;28;20240;-89
2023/02/13 01:26:18;;;;;;;28.27;16.53;;;;;;;0.04;100.00;100111.59;5053142;28;20219;-87
2023/02/13 01:28:44;;;;;;;26.83;16.30;;;;;;;0.01;100.00;100106.34;5053045;28;20208;-87
2023/02/13 01:31:11;;;;;;;27.63;17.00;;;;;;;0.03;100.00;100104.66;5052908;28;20208;-87
2023/02/13 01:33:37;;;;;;;28.40;17.50;;;;;;;0.06;100.00;100106.34;5052813;28;20243;-87
2023/02/13 01:36:08;;;;;;;26.27;15.40;;;;;;;0.00;100.00;100104.63;5052906;28;20215;-88
2023/02/13 01:38:35;;;;;;;25.77;15.60;;;;;;;0.00;100.00;100102.03;5053299;28;20211;-87
2023/02/13 01:41:03;;;;;;;26.30;15.17;;;;;;;-0.05;100.00;100106.31;5052952;28;20214;-87
2023/02/13 01:43:48;;;;;;;31.27;17.10;;;;;;;0.03;100.00;100108.97;5052740;28;20233;-88
2023/02/13 01:46:17;;;;;;;25.73;16.93;;;;;;;-0.01;100.00;100108.09;5052657;28;20212;-88
2023/02/13 01:48:45;;;;;;;28.13;16.93;;;;;;;-0.02;100.00;100097.69;5052744;28;20220;-88
2023/02/13 01:51:16;;;;;;;29.50;17.57;;;;;;;-0.10;100.00;100097.63;5052953;28;20242;-88
2023/02/13 01:53:46;;;;;;;27.83;17.27;;;;;;;-0.17;100.00;100094.16;5052634;28;20240;-88
2023/02/13 01:56:19;;;;;;;27.70;15.63;;;;;;;-0.20;100.00;100096.75;5052468;28;20208;-88
2023/02/13 01:58:49;;;;;;;24.07;14.83;;;;;;;-0.28;100.00;100092.34;5052323;28;20207;-88
2023/02/13 02:01:16;;;;;;;26.87;16.80;;;;;;;-0.32;100.00;100083.69;5052293;28;20212;-87
2023/02/13 02:03:47;;;;;;;27.83;16.63;;;;;;;-0.24;100.00;100095.00;5052321;28;20225;-88
2023/02/13 02:06:20;;;;;;;29.67;17.80;;;;;;;-0.22;100.00;100095.00;5052151;28;20214;-88
2023/02/13 02:08:49;;;;;;;29.53;17.30;;;;;;;-0.16;100.00;100092.41;5052353;28;20207;-90
2023/02/13 02:11:24;;;;;;;28.70;16.97;;;;;;;-0.17;100.00;100101.06;5052346;28;20676;-87
2023/02/13 02:13:51;;;;;;;29.80;16.97;;;;;;;-0.12;100.00;100094.19;5052026;28;20237;-88
2023/02/13 02:16:17;;;;;;;28.43;17.37;;;;;;;-0.04;100.00;100102.84;5052239;28;20209;-87
2023/02/13 02:18:44;;;;;;;32.73;18.37;;;;;;;-0.08;100.00;100101.13;5052229;28;20511;-87
2023/02/13 02:21:33;;;;;;;24.23;15.73;;;;;;;-0.11;100.00;100095.91;5052191;28;20228;-88
2023/02/13 02:24:30;;;;;;;27.80;16.17;;;;;;;-0.13;100.00;100095.91;5052041;28;20228;-90
2023/02/13 02:27:17;;;;;;;21.80;15.97;;;;;;;-0.17;100.00;100095.88;5051640;28;20211;-88
2023/02/13 02:30:23;;;;;;;28.33;16.77;;;;;;;-0.16;100.00;100092.41;5052274;28;20694;-90
2023/02/13 02:33:11;;;;;;;28.77;16.73;;;;;;;-0.17;100.00;100088.09;5052211;28;20215;-88
2023/02/13 02:35:46;;;;;;;26.07;16.73;;;;;;;-0.13;100.00;100087.25;5049456;28;20233;-90
2023/02/13 02:38:29;;;;;;;29.23;17.23;;;;;;;-0.07;100.00;100089.88;5051887;28;20689;-88
2023/02/13 02:41:07;;;;;;;28.40;16.73;;;;;;;-0.07;100.00;100083.78;5051946;28;20710;-88
2023/02/13 02:43:49;;;;;;;28.83;17.00;;;;;;;-0.08;100.00;100080.34;5052008;28;20235;-90
2023/02/13 02:46:26;;;;;;;32.70;17.30;;;;;;;-0.06;100.00;100081.22;5051996;28;20223;-88
2023/02/13 02:51:52;;;;;;;32.40;18.87;;;;;;;-0.02;100.00;100089.88;5052336;28;20212;-88
2023/02/13 02:57:14;;;;;;;27.83;17.40;;;;;;;-0.07;100.00;100084.69;5051764;28;20207;-88
2023/02/13 03:08:06;;;;;;;31.33;17.77;;;;;;;-0.03;100.00;100083.84;5052083;28;20210;-90
2023/02/13 03:13:36;;;;;;;28.77;16.90;;;;;;;-0.01;100.00;100086.41;5052175;28;20255;-89
2023/02/13 03:24:43;;;;;;;29.47;16.07;;;;;;;-0.26;100.00;100094.97;5076597;28;20211;-87
2023/02/13 03:30:05;;;;;;;30.97;16.67;;;;;;;-0.26;100.00;100091.53;5076260;28;20235;-87
2023/02/13 03:30:18;;;;;;;27.77;15.70;;;;;;;-0.36;100.00;100098.41;5075036;28;20196;-84
2023/02/13 03:32:53;;;;;;;29.70;17.23;;;;;;;-0.42;100.00;100095.78;5075469;28;20203;-88
2023/02/13 03:38:18;;;;;;;30.23;17.43;;;;;;;-0.45;100.00;100100.09;5070389;28;20227;-87
2023/02/13 03:43:44;;;;;;;30.10;17.20;;;;;;;-0.52;100.00;100095.69;5070824;28;20760;-86
2023/02/13 03:46:11;;;;;;;27.57;16.37;;;;;;;-0.52;100.00;100106.09;5066154;28;20214;-88
2023/02/13 03:51:29;;;;;;;28.07;16.43;;;;;;;-0.49;100.00;100111.31;5058082;28;20631;-88
2023/02/13 03:54:01;;;;;;;28.70;16.30;;;;;;;-0.42;100.00;100118.28;5056285;28;20251;-87
2023/02/13 03:59:21;;;;;;;32.17;15.83;;;;;;;-0.39;100.00;100118.31;5055418;28;20311;-87
2023/02/13 04:01:54;;;;;;;25.83;15.03;;;;;;;-0.41;100.00;100114.81;5054681;28;20533;-87
2023/02/13 04:04:27;;;;;;;32.63;16.80;;;;;;;-0.45;100.00;100126.91;5054908;28;20601;-87
2023/02/13 04:06:56;;;;;;;29.27;16.70;;;;;;;-0.36;100.00;100134.78;5054851;28;20215;-87
2023/02/13 04:09:27;;;;;;;27.87;15.93;;;;;;;-0.49;100.00;100132.09;5054841;28;20208;-88
2023/02/13 04:12:00;;;;;;;29.80;15.77;;;;;;;-0.55;100.00;100134.66;5055482;28;20206;-87
2023/02/13 04:14:33;;;;;;;29.00;15.87;;;;;;;-0.57;100.00;100133.78;5054993;28;20268;-87
2023/02/13 04:17:07;;;;;;;27.87;15.73;;;;;;;-0.62;100.00;100135.47;5055289;28;20204;-88
2023/02/13 04:19:33;;;;;;;25.60;15.43;;;;;;;-0.65;100.00;100130.25;5055232;28;20597;-88
2023/02/13 04:22:02;;;;;;;27.30;16.30;;;;;;;-0.73;100.00;100129.34;5054329;28;20209;-88
2023/02/13 04:24:30;;;;;;;28.70;17.30;;;;;;;-0.74;100.00;100132.78;5054227;28;20228;-88
2023/02/13 04:26:57;;;;;;;32.20;16.40;;;;;;;-0.76;100.00;100137.06;5054019;28;20699;-87
2023/02/13 04:29:26;;;;;;;28.73;17.50;;;;;;;-0.71;100.00;100140.59;5054720;28;20670;-88
2023/02/13 04:31:52;;;;;;;29.17;17.30;;;;;;;-0.58;100.00;100137.22;5054598;28;20214;-88
2023/02/13 04:34:19;;;;;;;26.63;15.60;;;;;;;-0.66;100.00;100138.91;5054311;28;20235;-87
2023/02/13 04:36:45;;;;;;;28.70;16.97;;;;;;;-0.73;100.00;100137.13;5054007;28;20216;-90
2023/02/13 04:39:12;;;;;;;27.90;15.40;;;;;;;-0.75;100.00;100138.84;5054277;28;20219;-87
2023/02/13 04:41:40;;;;;;;31.80;17.23;;;;;;;-0.78;100.00;100137.09;5054074;28;20209;-87
2023/02/13 04:44:06;;;;;;;33.13;17.27;;;;;;;-0.73;100.00;100140.59;5053949;28;20254;-87
2023/02/13 04:46:33;;;;;;;28.77;16.70;;;;;;;-0.73;100.00;100132.81;5054061;28;20208;-87
2023/02/13 04:48:59;;;;;;;28.27;17.63;;;;;;;-0.71;100.00;100140.59;5053985;28;20211;-87
2023/02/13 04:51:26;;;;;;;31.77;18.87;;;;;;;-0.71;100.00;100140.59;5052778;28;20227;-87
2023/02/13 04:53:52;;;;;;;29.20;18.30;;;;;;;-0.76;100.00;100143.16;5053735;28;20228;-87
2023/02/13 04:56:18;;;;;;;31.47;16.83;;;;;;;-0.80;100.00;100143.13;5053533;28;20729;-88
2023/02/13 04:58:46;;;;;;;28.90;16.30;;;;;;;-0.87;100.00;100144.78;5054023;28;20598;-87
2023/02/13 05:01:14;;;;;;;29.83;17.07;;;;;;;-0.93;100.00;100143.88;5054115;28;20213;-87
2023/02/13 05:03:40;;;;;;;27.57;16.73;;;;;;;-0.92;100.00;100150.81;5053462;28;20702;-87
2023/02/13 05:06:07;;;;;;;26.80;16.33;;;;;;;-0.95;100.00;100143.00;5053278;28;20303;-87
2023/02/13 05:08:33;;;;;;;24.97;15.43;;;;;;;-0.92;100.00;100150.81;5053231;28;20243;-87
2023/02/13 05:11:00;;;;;;;25.43;15.63;;;;;;;-0.95;100.00;100150.78;5053545;28;20208;-87
2023/02/13 05:13:26;;;;;;;27.63;16.07;;;;;;;-0.92;100.00;100145.63;5053214;28;20593;-87
2023/02/13 05:15:54;;;;;;;24.87;15.10;;;;;;;-1.05;100.00;100148.97;5053575;28;20238;-87
2023/02/13 05:18:21;;;;;;;34.43;18.03;;;;;;;-1.07;100.00;100148.06;5053168;28;20215;-87
2023/02/13 05:23:21;;;;;;;32.07;17.10;;;;;;;-1.11;100.00;100144.59;5053242;28;20211;-88
2023/02/13 05:23:33;;;;;;;29.97;18.07;;;;;;;-1.13;100.00;100141.13;5053257;28;20260;-88
2023/02/13 05:26:00;;;;;;;30.77;16.30;;;;;;;-1.14;100.00;100143.69;5053561;28;20232;-87
2023/02/13 05:31:12;;;;;;;29.63;17.20;;;;;;;-1.15;100.00;100141.97;5053401;28;20371;-87
2023/02/13 05:33:38;;;;;;;31.90;16.17;;;;;;;-1.17;100.00;100144.53;5053033;28;20232;-87
2023/02/13 05:36:06;;;;;;;30.03;16.83;;;;;;;-1.15;100.00;100152.34;5053029;28;20242;-87
2023/02/13 05:38:32;;;;;;;27.20;16.33;;;;;;;-1.20;100.00;100148.81;5052932;28;20219;-88
2023/02/13 05:40:59;;;;;;;31.17;16.63;;;;;;;-1.23;100.00;100148.81;5053346;28;20339;-86
2023/02/13 05:43:25;;;;;;;26.93;15.60;;;;;;;-1.27;100.00;100141.84;5053365;28;20235;-88
2023/02/13 05:45:52;;;;;;;29.07;15.97;;;;;;;-1.33;100.00;100146.97;5053168;28;20204;-86
2023/02/13 05:48:20;;;;;;;28.73;14.90;;;;;;;-1.34;100.00;100150.44;5052443;28;20211;-88
2023/02/13 05:50:46;;;;;;;27.83;15.57;;;;;;;-1.41;100.00;100140.84;5053288;28;20215;-88
2023/02/13 05:53:13;;;;;;;29.27;16.07;;;;;;;-1.47;100.00;100140.78;5052728;28;20251;-87
2023/02/13 05:55:39;;;;;;;26.00;14.50;;;;;;;-1.52;100.00;100147.66;5052682;28;20729;-88
2023/02/13 05:58:08;;;;;;;28.33;15.87;;;;;;;-1.44;100.00;100143.41;5052458;28;20220;-88
2023/02/13 06:00:34;;;;;;;29.63;15.77;;;;;;;-1.36;100.00;100144.38;5052423;28;20584;-88
2023/02/13 06:03:01;;;;;;;28.07;15.00;;;;;;;-1.44;100.00;100144.28;5052591;28;20239;-79
2023/02/13 06:05:29;;;;;;;33.30;16.67;;;;;;;-1.41;100.00;100135.66;5052874;28;20578;-89
2023/02/13 06:07:56;;;;;;;30.10;16.90;;;;;;;-1.40;100.00;100133.09;5052649;28;20242;-87
2023/02/13 06:10:22;;;;;;;34.00;16.20;;;;;;;-1.37;100.00;100145.19;5055441;28;20209;-89
2023/02/13 06:12:49;;;;;;;30.87;16.23;;;;;;;-1.38;100.00;100133.97;5052956;28;20204;-79
2023/02/13 06:15:15;;;;;;;27.13;15.00;;;;;;;-1.41;100.00;100148.63;5064621;23;20330;-77
2023/02/13 06:17:42;;;;;;;26.67;15.20;;;;;;;-1.44;100.00;100143.41;5051092;28;20561;-80
2023/02/13 06:20:09;;;;;;;25.50;14.40;;;;;;;-1.49;100.00;100145.06;5051353;28;20212;-77
2023/02/13 06:22:37;;;;;;;27.63;14.23;;;;;;;-1.49;100.00;100145.06;5051575;28;20219;-76
2023/02/13 06:25:04;;;;;;;27.47;15.07;;;;;;;-1.54;100.00;100147.63;5051429;28;20221;-77
2023/02/13 06:27:30;;;;;;;26.50;14.67;;;;;;;-1.53;100.00;100145.91;5050938;28;20579;-78
2023/02/13 06:29:57;;;;;;;28.30;15.40;;;;;;;-1.55;100.00;100145.00;5051008;28;20223;-77
2023/02/13 06:32:23;;;;;;;27.77;14.00;;;;;;;-1.59;100.00;100148.44;5050823;28;20226;-77
2023/02/13 06:34:50;;;;;;;28.45;15.30;;;;;;;-1.57;100.00;100147.59;5050861;28;20313;-76
2023/02/13 06:37:16;;;;;;;27.17;14.83;;;;;;;-1.66;100.00;100154.41;5050676;28;20212;-80
2023/02/13 06:39:44;;;;;;;27.67;16.00;;;;;;;-1.70;100.00;100150.03;5050978;28;20208;-76
2023/02/13 06:42:11;;;;;;;32.37;17.00;;;;;;;-1.72;100.00;100160.38;5050768;28;20211;-76
2023/02/13 06:44:37;;;;;;;31.93;16.53;;;;;;;-1.74;100.00;100153.44;5050532;28;20254;-76
2023/02/13 06:47:03;;;;;;;26.17;14.90;;;;;;;-1.78;100.00;100157.72;5050599;28;20210;-76
2023/02/13 06:49:30;;;;;;;30.40;17.07;;;;;;;-1.76;100.00;100158.63;5050618;28;20219;-76
2023/02/13 06:51:56;;;;;;;32.37;15.90;;;;;;;-1.69;100.00;100156.97;5050769;28;20215;-76
2023/02/13 06:54:23;;;;;;;29.13;15.27;;;;;;;-1.66;100.00;100152.69;5050495;28;20228;-76
2023/02/13 06:56:51;;;;;;;33.73;17.47;;;;;;;-1.69;100.00;100154.38;5050005;28;20721;-78
2023/02/13 06:59:17;;;;;;;31.50;15.67;;;;;;;-1.68;100.00;100158.69;5050868;28;20207;-78
2023/02/13 07:01:44;;;;;;;32.03;16.13;;;;;;;-1.67;100.00;100161.31;5050630;28;20222;-78
2023/02/13 07:04:10;;;;;;;31.47;16.97;;;;;;;-1.66;100.00;100162.19;5050427;28;20868;-78
2023/02/13 07:06:36;;;;;;;26.47;15.83;;;;;;;-1.71;100.00;100156.09;5050258;28;20577;-76
2023/02/13 07:09:03;;;;;;;29.93;15.43;;;;;;;-1.74;100.00;100163.81;5050466;28;20214;-78
2023/02/13 07:11:30;;;;;;;25.80;14.03;;;;;;;-1.79;100.00;100168.09;5050317;28;20227;-78
2023/02/13 07:13:59;;;;;;;26.30;14.53;;;;;;;-1.83;100.00;100163.72;5052364;28;20243;-76
2023/02/13 07:16:25;;;;;;;27.03;15.93;;;;;;;-1.76;100.00;100170.72;5054391;28;20231;-77
2023/02/13 07:18:52;;;;;;;27.10;15.37;;;;;;;-1.72;100.00;100167.31;5054884;28;20208;-76
2023/02/13 07:21:18;;;;;;;32.83;17.10;;;;;;;-1.42;100.00;100168.50;5054520;28;20219;-78
2023/02/13 07:23:44;;;;;;;41.27;20.30;;;;;;;-1.03;100.00;100168.00;5054419;28;20235;-76
2023/02/13 07:26:11;;;;;;;41.73;19.33;;;;;;;-1.01;100.00;100176.69;5053268;28;20215;-77
2023/02/13 07:28:37;;;;;;;34.70;17.50;;;;;;;-1.12;100.00;100171.41;5054255;28;20208;-76
2023/02/13 07:31:06;;;;;;;31.53;15.83;;;;;;;-1.22;100.00;100176.50;5052780;28;20581;-77
2023/02/13 07:33:33;;;;;;;31.93;16.00;;;;;;;-1.27;100.00;100173.84;5052533;28;20228;-77
2023/02/13 07:36:02;;;;;;;32.60;16.53;;;;;;;-1.25;100.00;100181.63;5053221;28;20223;-77
2023/02/13 07:38:29;;;;;;;32.53;16.77;;;;;;;-1.22;100.00;100176.50;5052841;28;20215;-77
2023/02/13 07:40:58;;;;;;;35.00;17.80;;;;;;;-1.21;100.00;100180.81;5043953;28;20201;-77
2023/02/13 07:43:24;;;;;;;34.40;18.00;;;;;;;-1.16;100.00;100185.19;5035132;28;20237;-77
2023/02/13 07:45:54;;;;;;;33.70;18.17;;;;;;;-1.14;100.00;100180.91;5033595;28;20637;-77
2023/02/13 07:48:22;;;;;;;42.77;19.07;;;;;;;-0.98;100.00;100181.91;5033577;28;20217;-77
2023/02/13 07:50:48;;;;;;;43.67;19.93;;;;;;;-0.80;100.00;100182.91;5033407;28;20209;-79
2023/02/13 07:53:15;;;;;;;46.33;26.65;;;;;;;-0.69;100.00;100172.63;5033132;28;20433;-77
2023/02/13 07:55:41;;;;;;;42.23;20.87;;;;;;;-0.63;100.00;100180.47;5034092;28;20225;-77
2023/02/13 07:58:08;;;;;;;38.53;20.63;;;;;;;-0.59;100.00;100175.31;5034049;28;20303;-82
2023/02/13 08:00:34;;;;;;;45.47;21.70;;;;;;;-0.49;100.00;100173.66;5034314;28;20212;-77
2023/02/13 08:03:01;;;;;;;41.33;20.00;;;;;;;-0.41;100.00;100179.75;5034136;28;20589;-77
2023/02/13 08:05:30;;;;;;;43.83;20.40;;;;;;;-0.34;100.00;100173.72;5034249;28;20208;-77
2023/02/13 08:07:57;;;;;;;45.07;20.10;;;;;;;-0.30;100.00;100175.50;5033818;28;20624;-77
2023/02/13 08:13:09;;;;;;;42.53;20.37;;;;;;;-0.20;100.00;100167.75;5034007;28;20730;-77
2023/02/13 08:15:35;;;;;;;46.00;22.47;;;;;;;-0.13;100.00;100168.69;5033821;28;20782;-77
2023/02/13 08:18:02;;;;;;;45.23;21.87;;;;;;;-0.04;100.00;100174.78;5033513;28;20209;-77
2023/02/13 08:20:31;;;;;;;46.43;21.23;;;;;;;0.05;100.00;100175.69;5033851;28;20216;-77
2023/02/13 08:23:03;;;;;;;43.43;22.70;;;;;;;0.13;100.00;100174.00;5033979;28;20279;-77
2023/02/13 08:25:29;;;;;;;46.63;23.80;;;;;;;0.33;100.00;100180.13;5033485;28;20208;-78
2023/02/13 08:27:56;;;;;;;45.70;23.97;;;;;;;0.54;100.00;100172.41;5033462;28;20236;-77
2023/02/13 08:30:22;;;;;;;48.57;23.80;;;;;;;0.72;100.00;100172.47;5033659;28;20228;-78
2023/02/13 08:32:49;;;;;;;46.97;23.27;;;;;;;0.87;100.00;100171.63;5033619;28;20214;-78
2023/02/13 08:35:15;;;;;;;43.57;22.80;;;;;;;0.85;100.00;100182.03;5033834;28;20236;-78
2023/02/13 08:37:43;;;;;;;42.50;22.40;;;;;;;0.88;100.00;100173.34;5033408;28;20606;-78
2023/02/13 08:40:10;;;;;;;43.53;22.33;;;;;;;0.89;100.00;100170.75;5033799;28;20213;-78
2023/02/13 08:42:37;;;;;;;43.47;23.13;;;;;;;0.98;100.00;100169.91;5033571;28;20236;-78
2023/02/13 08:45:04;;;;;;;46.37;24.13;;;;;;;1.04;100.00;100162.09;5033203;28;20235;-78
2023/02/13 08:47:31;;;;;;;47.07;22.80;;;;;;;1.08;100.00;100169.03;5033335;28;20322;-78
2023/02/13 08:49:57;;;;;;;51.33;23.27;;;;;;;1.14;100.00;100156.91;5033382;28;20218;-78
2023/02/13 08:52:24;;;;;;;45.97;23.50;;;;;;;1.23;100.00;100162.09;5033437;28;20216;-78
2023/02/13 08:54:51;;;;;;;49.23;25.43;;;;;;;1.27;100.00;100162.94;5032997;28;20252;-78
2023/02/13 08:57:18;;;;;;;45.57;24.50;;;;;;;1.29;100.00;100161.25;5032785;28;20252;-78
2023/02/13 08:59:44;;;;;;;44.23;22.80;;;;;;;1.36;100.00;100155.16;5033018;28;20215;-78
2023/02/13 09:02:11;;;;;;;47.47;23.73;;;;;;;1.46;100.00;100155.13;5033267;28;20217;-78
2023/02/13 09:04:40;;;;;;;42.40;22.43;;;;;;;1.53;100.00;100158.63;5033070;28;20237;-78
2023/02/13 09:07:06;;;;;;;39.53;21.30;;;;;;;1.58;100.00;100164.66;5032661;28;20616;-78
2023/02/13 09:09:33;;;;;;;44.80;22.47;;;;;;;1.66;100.00;100166.38;5032949;28;20295;-78
2023/02/13 09:12:01;;;;;;;44.53;22.27;;;;;;;1.70;100.00;100162.03;5032928;28;20216;-78
2023/02/13 09:14:27;;;;;;;40.20;22.13;;;;;;;1.77;100.00;100162.03;5032511;28;20248;-79
2023/02/13 09:16:54;;;;;;;44.27;22.03;;;;;;;1.90;100.00;100168.94;5032586;28;20231;-79
2023/02/13 09:19:20;;;;;;;42.30;22.60;;;;;;;2.06;100.00;100159.34;5032729;28;20220;-79
2023/02/13 09:21:47;;;;;;;44.07;22.67;;;;;;;2.24;100.00;100149.72;5032586;28;20214;-78
2023/02/13 09:24:13;;;;;;;38.93;21.90;;;;;;;2.46;100.00;100158.31;5032351;28;20225;-78
2023/02/13 09:26:40;;;;;;;40.45;25.58;;;;;;;2.77;100.00;100152.91;5030881;28;20430;-78
2023/02/13 09:29:07;;;;;;;33.57;20.37;;;;;;;3.03;100.00;100158.81;5032186;28;20334;-79
2023/02/13 09:31:34;;;;;;;31.50;17.97;;;;;;;3.14;100.00;100163.97;5032245;28;20211;-79
2023/02/13 09:34:00;;;;;;;32.83;18.17;;;;;;;3.24;100.00;100160.41;5032011;28;20235;-78
2023/02/13 09:36:27;;;;;;;31.77;18.27;;;;;;;3.41;100.00;100154.16;5031258;28;20560;-77
2023/02/13 09:38:55;;;;;;;26.13;15.80;;;;;;;3.62;100.00;100164.41;5032164;28;20314;-78
2023/02/13 09:41:24;;;;;;;23.77;14.13;;;;;;;3.71;100.00;100161.72;5032049;28;20555;-77
2023/02/13 09:43:54;;;;;;;20.47;13.80;;;;;;;3.79;100.00;100164.25;5031934;28;20239;-83
2023/02/13 09:46:27;;;;;;;20.47;13.17;;;;;;;3.96;100.00;100168.41;5032194;28;20213;-83
2023/02/13 09:48:57;;;;;;;20.53;12.60;;;;;;;4.05;100.00;100168.34;5032090;28;20683;-82
2023/02/13 09:51:24;;;;;;;18.43;12.43;;;;;;;4.19;100.00;100173.41;5031920;28;20204;-82
2023/02/13 09:53:56;;;;;;;19.20;12.23;;;;;;;4.31;100.00;100174.13;5031760;28;20242;-82
2023/02/13 09:56:37;;;;;;;18.23;12.13;;;;;;;4.39;100.00;100167.03;5031726;28;20237;-81
2023/02/13 09:59:09;;;;;;;19.17;12.63;;;;;;;4.46;100.00;100168.69;5031939;28;20210;-82
2023/02/13 10:01:41;;;;;;;18.33;12.27;;;;;;;4.54;100.00;100166.88;5031883;28;20222;-81
2023/02/13 10:04:25;;;;;;;19.17;11.73;;;;;;;4.66;100.00;100171.94;5031527;28;20260;-79
2023/02/13 10:06:59;;;;;;;16.83;11.63;;;;;;;4.69;100.00;100166.66;5031556;28;20556;-82
2023/02/13 10:09:33;;;;;;;16.87;11.33;;;;;;;4.78;100.00;100163.91;5031969;28;20216;-83
2023/02/13 10:12:20;;;;;;;15.40;10.80;;;;;;;4.75;100.00;100163.94;5031627;28;20231;-78
2023/02/13 10:14:57;;;;;;;15.57;10.60;;;;;;;4.89;100.00;100169.84;5031231;28;20233;-81
2023/02/13 10:17:32;;;;;;;17.40;11.33;;;;;;;5.02;100.00;100160.91;5031254;28;20242;-78
2023/02/13 10:20:02;;;;;;;15.33;11.13;;;;;;;5.06;100.00;100162.59;5031453;28;20217;-77
2023/02/13 10:22:33;;;;;;;15.00;10.77;;;;;;;5.13;100.00;100152.91;5031292;28;20703;-81
2023/02/13 10:25:04;;;;;;;15.87;10.10;;;;;;;5.16;100.00;100148.47;5031264;28;20244;-78
2023/02/13 10:27:35;;;;;;;17.63;11.53;;;;;;;5.15;100.00;100140.63;5030885;28;20251;-79
2023/02/13 10:30:08;;;;;;;15.07;10.37;;;;;;;5.26;100.00;100144.81;5031370;28;20578;-79
2023/02/13 10:32:46;;;;;;;17.47;11.37;;;;;;;5.33;100.00;100146.47;5031332;28;20212;-78
2023/02/13 10:35:22;;;;;;;18.97;12.03;;;;;;;5.46;100.00;100144.47;5031317;28;20235;-76
2023/02/13 10:37:51;;;;;;;17.60;11.40;;;;;;;5.48;100.00;100146.19;5030997;28;20235;-80
2023/02/13 10:40:19;;;;;;;17.50;11.27;;;;;;;5.53;100.00;100141.72;5031222;28;20235;-77
2023/02/13 10:42:51;;;;;;;14.50;10.63;;;;;;;5.38;100.00;100144.59;5030953;28;20204;-80
2023/02/13 10:45:40;;;;;;;16.77;11.60;;;;;;;5.45;100.00;100146.22;5030915;28;20224;-78
2023/02/13 10:48:20;;;;;;;18.93;12.07;;;;;;;5.64;100.00;100147.66;5030560;28;20205;-79
2023/02/13 10:50:58;;;;;;;16.97;11.57;;;;;;;5.82;100.00;100123.75;5031080;28;20226;-79
2023/02/13 10:53:39;;;;;;;14.60;10.70;;;;;;;5.88;100.00;100115.75;5030984;28;20235;-77
2023/02/13 10:56:16;;;;;;;12.87;9.47;;;;;;;5.88;100.00;100125.38;5030731;28;20223;-79
2023/02/13 10:59:00;;;;;;;12.70;9.50;;;;;;;5.99;100.00;100105.91;5030983;28;20621;-78
2023/02/13 11:01:35;;;;;;;14.60;10.23;;;;;;;6.11;100.00;100108.28;5030891;28;20210;-80
2023/02/13 11:04:08;;;;;;;14.80;10.33;;;;;;;6.17;100.00;100100.28;5030763;28;20224;-79
2023/02/13 11:06:36;;;;;;;13.87;9.90;;;;;;;6.06;100.00;100102.28;5030561;28;20223;-80
2023/02/13 11:09:05;;;;;;;12.00;9.13;;;;;;;6.08;100.00;100103.09;5030674;28;20216;-79
2023/02/13 11:11:33;;;;;;;12.27;9.30;;;;;;;5.89;100.00;100091.25;5030959;28;20560;-79
2023/02/13 11:14:12;;;;;;;12.60;9.10;;;;;;;5.82;100.00;100115.88;5030649;28;20252;-79
2023/02/13 11:16:41;;;;;;;12.00;8.67;;;;;;;5.78;100.00;100108.03;5030307;28;20354;-78
2023/02/13 11:19:17;;;;;;;12.70;9.10;;;;;;;5.75;100.00;100113.34;5030865;28;20287;-78
2023/02/13 11:21:44;;;;;;;11.97;8.70;;;;;;;5.89;100.00;100114.00;5030726;28;20212;-78
2023/02/13 11:24:19;;;;;;;12.10;9.03;;;;;;;6.03;100.00;100083.94;5030653;28;20232;-76
2023/02/13 11:26:52;;;;;;;12.33;9.30;;;;;;;6.03;100.00;100097.06;5030273;28;20231;-76
2023/02/13 11:29:23;;;;;;;13.20;9.47;;;;;;;6.06;100.00;100094.41;5030617;28;20208;-76
2023/02/13 11:32:02;;;;;;;12.10;9.83;;;;;;;6.04;100.00;100090.94;5030685;28;20209;-78
2023/02/13 11:34:31;;;;;;;13.33;10.30;;;;;;;6.32;100.00;100088.59;5030563;28;20240;-78
2023/02/13 11:37:15;;;;;;;11.40;8.93;;;;;;;6.28;100.00;100084.31;5030086;28;20235;-78
2023/02/13 11:39:43;;;;;;;12.60;8.97;;;;;;;6.24;100.00;100087.91;5030447;28;20224;-78
2023/02/13 11:42:14;;;;;;;14.97;9.30;;;;;;;6.42;100.00;100088.34;5030375;28;20206;-77
2023/02/13 11:44:42;;;;;;;13.80;9.60;;;;;;;6.40;100.00;100094.56;5030494;28;20244;-76
2023/02/13 11:47:09;;;;;;;14.63;9.20;;;;;;;6.62;100.00;100074.78;5030230;28;20211;-76
2023/02/13 11:49:38;;;;;;;13.97;9.33;;;;;;;6.58;100.00;100089.75;5030499;28;20213;-76
2023/02/13 11:52:11;;;;;;;13.33;9.07;;;;;;;6.55;100.00;100074.09;5030508;28;20597;-76
2023/02/13 11:54:41;;;;;;;11.80;8.97;;;;;;;6.53;95.29;100065.34;5030179;28;20259;-76
2023/02/13 11:57:20;;;;;;;12.70;9.37;;;;;;;6.48;98.47;100077.72;5029681;28;20264;-76
2023/02/13 11:59:49;;;;;;;12.33;8.77;;;;;;;6.50;98.31;100080.31;5031998;28;20272;-78
2023/02/13 12:02:18;;;;;;;14.40;8.87;;;;;;;6.60;96.56;100072.19;5034142;28;20216;-80